createdAt,value
2019-03-03T00:00:01.928Z,1005.6
2019-03-03T00:01:01.942Z,1005.64
2019-03-03T00:02:01.955Z,1005.64
2019-03-03T00:03:01.973Z,1005.7
2019-03-03T00:04:01.988Z,1005.65
2019-03-03T00:05:02.000Z,1005.66
2019-03-03T00:06:02.015Z,1005.65
2019-03-03T00:07:02.030Z,1005.64
2019-03-03T00:08:02.048Z,1005.67
2019-03-03T00:09:02.060Z,1005.63
2019-03-03T00:10:02.075Z,1005.66
2019-03-03T00:11:02.090Z,1005.68
2019-03-03T00:12:02.106Z,1005.68
2019-03-03T00:13:02.120Z,1005.64
2019-03-03T00:14:02.134Z,1005.6
2019-03-03T00:15:02.151Z,1005.59
2019-03-03T00:16:02.163Z,1005.55
2019-03-03T00:17:02.179Z,1005.54
2019-03-03T00:18:02.194Z,1005.5
2019-03-03T00:19:02.209Z,1005.5
2019-03-03T00:20:02.223Z,1005.47
2019-03-03T00:21:02.239Z,1005.42
2019-03-03T00:22:02.257Z,1005.4
2019-03-03T00:23:02.269Z,1005.33
2019-03-03T00:24:02.283Z,1005.27
2019-03-03T00:25:02.299Z,1005.28
2019-03-03T00:26:02.314Z,1005.25
2019-03-03T00:27:02.327Z,1005.24
2019-03-03T00:29:02.358Z,1005.27
2019-03-03T00:30:02.374Z,1005.21
2019-03-03T00:31:02.387Z,1005.24
2019-03-03T00:32:02.402Z,1005.26
2019-03-03T00:33:02.418Z,1005.21
2019-03-03T00:34:02.433Z,1005.18
2019-03-03T00:35:02.447Z,1005.2
2019-03-03T00:36:02.463Z,1005.18
2019-03-03T00:37:02.478Z,1005.15
2019-03-03T00:38:02.492Z,1005.14
2019-03-03T00:39:02.507Z,1005.14
2019-03-03T00:40:02.522Z,1005.14
2019-03-03T00:41:02.539Z,1005.13
2019-03-03T00:42:02.552Z,1005.11
2019-03-03T00:43:02.567Z,1005.11
2019-03-03T00:45:02.599Z,1005.07
2019-03-03T00:46:02.612Z,1005.07
2019-03-03T00:47:02.627Z,1005.07
2019-03-03T00:48:02.643Z,1005.08
2019-03-03T00:49:02.657Z,1005.1
2019-03-03T00:50:02.672Z,1005.09
2019-03-03T00:51:02.687Z,1005.06
2019-03-03T00:52:02.703Z,1005.06
2019-03-03T00:53:02.716Z,1005.09
2019-03-03T00:54:02.732Z,1005.03
2019-03-03T00:55:02.747Z,1005.05
2019-03-03T00:56:02.763Z,1005.1
2019-03-03T00:57:02.778Z,1005.06
2019-03-03T00:58:02.793Z,1005.01
2019-03-03T00:59:02.808Z,1005.01
2019-03-03T01:01:02.838Z,1005.02
2019-03-03T01:02:02.853Z,1005.05
2019-03-03T01:03:02.869Z,1004.95
2019-03-03T01:04:02.883Z,1005
2019-03-03T01:05:02.901Z,1004.94
2019-03-03T01:06:02.914Z,1004.94
2019-03-03T01:07:02.929Z,1004.95
2019-03-03T01:08:02.945Z,1004.94
2019-03-03T01:09:02.959Z,1004.95
2019-03-03T01:10:02.978Z,1004.92
2019-03-03T01:11:02.990Z,1004.91
2019-03-03T01:12:03.019Z,1004.84
2019-03-03T01:13:03.021Z,1004.87
2019-03-03T01:14:03.035Z,1004.84
2019-03-03T01:15:03.060Z,1004.85
2019-03-03T01:17:03.083Z,1004.81
2019-03-03T01:18:03.096Z,1004.85
2019-03-03T01:19:03.111Z,1004.84
2019-03-03T01:20:03.130Z,1004.87
2019-03-03T01:21:03.142Z,1004.82
2019-03-03T01:22:03.156Z,1004.89
2019-03-03T01:23:03.297Z,1004.87
2019-03-03T01:24:03.187Z,1004.86
2019-03-03T01:25:03.206Z,1004.83
2019-03-03T01:26:03.231Z,1004.85
2019-03-03T01:27:03.236Z,1004.84
2019-03-03T01:28:03.248Z,1004.86
2019-03-03T01:29:03.265Z,1004.89
2019-03-03T01:30:03.280Z,1004.85
2019-03-03T01:32:03.311Z,1004.87
2019-03-03T01:33:03.332Z,1004.86
2019-03-03T01:34:03.341Z,1004.87
2019-03-03T01:35:03.356Z,1004.87
2019-03-03T01:36:03.374Z,1004.91
2019-03-03T01:37:03.387Z,1004.84
2019-03-03T01:38:03.401Z,1004.84
2019-03-03T01:39:03.418Z,1004.82
2019-03-03T01:40:03.432Z,1004.8
2019-03-03T01:41:03.447Z,1004.77
2019-03-03T01:42:03.463Z,1004.79
2019-03-03T01:43:03.478Z,1004.74
2019-03-03T01:44:03.493Z,1004.72
2019-03-03T01:45:03.509Z,1004.76
2019-03-03T01:46:03.524Z,1004.68
2019-03-03T01:47:03.540Z,1004.7
2019-03-03T01:48:03.555Z,1004.66
2019-03-03T01:49:03.570Z,1004.63
2019-03-03T01:50:03.586Z,1004.63
2019-03-03T01:51:03.600Z,1004.67
2019-03-03T01:52:03.615Z,1004.66
2019-03-03T01:53:03.631Z,1004.58
2019-03-03T01:54:03.646Z,1004.56
2019-03-03T01:55:03.660Z,1004.58
2019-03-03T01:56:03.676Z,1004.56
2019-03-03T01:57:03.695Z,1004.61
2019-03-03T01:58:03.708Z,1004.58
2019-03-03T01:59:03.722Z,1004.56
2019-03-03T02:00:03.738Z,1004.57
2019-03-03T02:01:03.754Z,1004.53
2019-03-03T02:02:03.769Z,1004.56
2019-03-03T02:04:03.800Z,1004.5
2019-03-03T02:05:03.816Z,1004.49
2019-03-03T02:06:03.829Z,1004.45
2019-03-03T02:07:03.849Z,1004.44
2019-03-03T02:08:03.861Z,1004.4
2019-03-03T02:09:03.876Z,1004.35
2019-03-03T02:10:03.890Z,1004.38
2019-03-03T02:11:03.908Z,1004.34
2019-03-03T02:12:03.922Z,1004.32
2019-03-03T02:13:03.937Z,1004.3
2019-03-03T02:14:03.952Z,1004.36
2019-03-03T02:15:03.968Z,1004.27
2019-03-03T02:16:03.983Z,1004.25
2019-03-03T02:17:04.001Z,1004.26
2019-03-03T02:18:04.013Z,1004.23
2019-03-03T02:20:04.045Z,1004.28
2019-03-03T02:21:04.059Z,1004.24
2019-03-03T02:22:04.074Z,1004.26
2019-03-03T02:23:04.090Z,1004.24
2019-03-03T02:24:04.105Z,1004.23
2019-03-03T02:25:04.123Z,1004.2
2019-03-03T02:26:04.136Z,1004.17
2019-03-03T02:27:04.152Z,1004.23
2019-03-03T02:28:04.166Z,1004.14
2019-03-03T02:29:04.182Z,1004.16
2019-03-03T02:30:04.202Z,1004.13
2019-03-03T02:31:04.216Z,1004.18
2019-03-03T02:32:04.228Z,1004.18
2019-03-03T02:33:04.245Z,1004.14
2019-03-03T02:34:04.261Z,1004.15
2019-03-03T02:36:04.290Z,1004.14
2019-03-03T02:37:04.305Z,1004.12
2019-03-03T02:38:04.321Z,1004.08
2019-03-03T02:39:04.342Z,1004.09
2019-03-03T02:40:04.353Z,1004.08
2019-03-03T02:41:04.367Z,1004.11
2019-03-03T02:42:04.383Z,1004.08
2019-03-03T02:43:04.397Z,1004.09
2019-03-03T02:44:04.413Z,1004.06
2019-03-03T02:45:04.436Z,1004.05
2019-03-03T02:46:04.443Z,1004.09
2019-03-03T02:47:04.460Z,1004.04
2019-03-03T02:48:04.474Z,1004.05
2019-03-03T02:49:04.494Z,1003.99
2019-03-03T02:50:04.506Z,1003.96
2019-03-03T02:52:04.537Z,1004
2019-03-03T02:53:04.556Z,1004.04
2019-03-03T02:54:04.570Z,1003.99
2019-03-03T02:55:04.582Z,1003.94
2019-03-03T02:56:04.599Z,1003.97
2019-03-03T02:57:04.613Z,1004
2019-03-03T02:58:04.629Z,1004
2019-03-03T02:59:04.646Z,1003.98
2019-03-03T03:00:04.661Z,1003.94
2019-03-03T03:01:04.676Z,1003.96
2019-03-03T03:02:04.691Z,1003.95
2019-03-03T03:03:04.709Z,1003.93
2019-03-03T03:04:04.726Z,1004
2019-03-03T03:05:04.738Z,1003.92
2019-03-03T03:07:04.769Z,1003.93
2019-03-03T03:08:04.784Z,1003.93
2019-03-03T03:09:04.801Z,1003.94
2019-03-03T03:10:04.817Z,1003.93
2019-03-03T03:11:04.831Z,1003.92
2019-03-03T03:12:04.849Z,1003.92
2019-03-03T03:13:04.862Z,1003.94
2019-03-03T03:14:04.879Z,1003.92
2019-03-03T03:15:04.893Z,1003.95
2019-03-03T03:16:04.910Z,1003.85
2019-03-03T03:17:04.924Z,1003.8
2019-03-03T03:18:04.943Z,1003.84
2019-03-03T03:19:04.955Z,1003.77
2019-03-03T03:20:04.978Z,1003.81
2019-03-03T03:21:04.989Z,1003.78
2019-03-03T03:22:05.001Z,1003.72
2019-03-03T03:23:05.016Z,1003.74
2019-03-03T03:24:05.032Z,1003.72
2019-03-03T03:25:05.067Z,1003.69
2019-03-03T03:26:05.063Z,1003.64
2019-03-03T03:27:07.169Z,1003.69
2019-03-03T03:28:05.096Z,1003.65
2019-03-03T03:29:05.110Z,1003.68
2019-03-03T03:30:05.130Z,1003.64
2019-03-03T03:31:05.144Z,1003.61
2019-03-03T03:32:05.157Z,1003.54
2019-03-03T03:33:05.174Z,1003.58
2019-03-03T03:34:05.192Z,1003.55
2019-03-03T03:35:05.209Z,1003.57
2019-03-03T03:36:05.218Z,1003.54
2019-03-03T03:37:05.232Z,1003.56
2019-03-03T03:39:05.265Z,1003.57
2019-03-03T03:40:05.304Z,1003.52
2019-03-03T03:41:05.296Z,1003.52
2019-03-03T03:42:05.311Z,1003.46
2019-03-03T03:43:05.326Z,1003.44
2019-03-03T03:44:05.344Z,1003.44
2019-03-03T03:45:05.358Z,1003.36
2019-03-03T03:46:05.374Z,1003.4
2019-03-03T03:47:05.389Z,1003.36
2019-03-03T03:48:05.403Z,1003.33
2019-03-03T03:49:05.419Z,1003.31
2019-03-03T03:50:05.436Z,1003.29
2019-03-03T03:51:05.451Z,1003.24
2019-03-03T03:52:05.465Z,1003.26
2019-03-03T03:53:05.482Z,1003.21
2019-03-03T03:55:05.514Z,1003.17
2019-03-03T03:56:05.531Z,1003.19
2019-03-03T03:57:05.544Z,1003.13
2019-03-03T03:58:05.561Z,1003.13
2019-03-03T03:59:05.575Z,1003.11
2019-03-03T04:00:05.591Z,1003.11
2019-03-03T04:01:05.609Z,1003.11
2019-03-03T04:02:05.622Z,1003.1
2019-03-03T04:03:05.638Z,1003.11
2019-03-03T04:04:05.654Z,1003.08
2019-03-03T04:05:05.668Z,1003.09
2019-03-03T04:06:05.684Z,1003.04
2019-03-03T04:07:05.700Z,1003.08
2019-03-03T04:08:05.730Z,1003.06
2019-03-03T04:09:05.731Z,1003.06
2019-03-03T04:11:05.762Z,1002.95
2019-03-03T04:12:05.783Z,1002.97
2019-03-03T04:13:05.793Z,1003.01
2019-03-03T04:14:05.808Z,1002.98
2019-03-03T04:15:05.825Z,1002.9
2019-03-03T04:16:05.841Z,1003
2019-03-03T04:17:05.858Z,1003.03
2019-03-03T04:18:05.874Z,1003
2019-03-03T04:19:05.889Z,1002.94
2019-03-03T04:20:05.954Z,1002.91
2019-03-03T04:21:05.918Z,1002.92
2019-03-03T04:22:05.934Z,1002.85
2019-03-03T04:23:05.951Z,1002.92
2019-03-03T04:24:05.966Z,1002.82
2019-03-03T04:25:05.981Z,1002.8
2019-03-03T04:27:06.012Z,1002.74
2019-03-03T04:28:06.029Z,1002.75
2019-03-03T04:29:06.043Z,1002.73
2019-03-03T04:30:06.062Z,1002.72
2019-03-03T04:31:06.075Z,1002.73
2019-03-03T04:32:06.091Z,1002.75
2019-03-03T04:33:06.106Z,1002.71
2019-03-03T04:34:06.122Z,1002.66
2019-03-03T04:35:06.143Z,1002.67
2019-03-03T04:36:06.153Z,1002.67
2019-03-03T04:37:06.168Z,1002.64
2019-03-03T04:38:06.184Z,1002.6
2019-03-03T04:39:06.215Z,1002.58
2019-03-03T04:40:06.217Z,1002.61
2019-03-03T04:42:06.259Z,1002.62
2019-03-03T04:43:06.264Z,1002.62
2019-03-03T04:44:06.282Z,1002.63
2019-03-03T04:45:06.295Z,1002.61
2019-03-03T04:46:06.311Z,1002.58
2019-03-03T04:47:06.326Z,1002.64
2019-03-03T04:48:06.343Z,1002.59
2019-03-03T04:49:06.358Z,1002.64
2019-03-03T04:50:06.373Z,1002.63
2019-03-03T04:51:06.389Z,1002.67
2019-03-03T04:52:06.405Z,1002.68
2019-03-03T04:53:06.421Z,1002.66
2019-03-03T04:54:06.438Z,1002.65
2019-03-03T04:55:06.453Z,1002.62
2019-03-03T04:56:06.469Z,1002.62
2019-03-03T04:57:06.485Z,1002.58
2019-03-03T04:58:06.501Z,1002.61
2019-03-03T04:59:06.523Z,1002.62
2019-03-03T05:00:06.533Z,1002.55
2019-03-03T05:01:06.548Z,1002.57
2019-03-03T05:02:06.564Z,1002.54
2019-03-03T05:03:06.580Z,1002.53
2019-03-03T05:04:06.596Z,1002.55
2019-03-03T05:05:06.612Z,1002.49
2019-03-03T05:06:06.627Z,1002.51
2019-03-03T05:07:06.647Z,1002.52
2019-03-03T05:08:06.659Z,1002.56
2019-03-03T05:09:06.675Z,1002.55
2019-03-03T05:10:06.691Z,1002.57
2019-03-03T05:11:06.707Z,1002.62
2019-03-03T05:12:06.722Z,1002.55
2019-03-03T05:14:06.754Z,1002.57
2019-03-03T05:15:06.771Z,1002.54
2019-03-03T05:16:06.786Z,1002.52
2019-03-03T05:17:08.688Z,1002.55
2019-03-03T05:18:06.818Z,1002.53
2019-03-03T05:19:06.834Z,1002.51
2019-03-03T05:20:06.852Z,1002.48
2019-03-03T05:21:06.867Z,1002.51
2019-03-03T05:22:06.883Z,1002.51
2019-03-03T05:23:06.898Z,1002.47
2019-03-03T05:24:06.914Z,1002.48
2019-03-03T05:25:06.931Z,1002.45
2019-03-03T05:26:06.946Z,1002.47
2019-03-03T05:27:06.964Z,1002.47
2019-03-03T05:28:06.978Z,1002.42
2019-03-03T05:30:07.010Z,1002.43
2019-03-03T05:31:07.026Z,1002.42
2019-03-03T05:32:07.043Z,1002.46
2019-03-03T05:33:07.059Z,1002.45
2019-03-03T05:34:07.075Z,1002.42
2019-03-03T05:35:07.090Z,1002.41
2019-03-03T05:36:07.107Z,1002.4
2019-03-03T05:37:07.123Z,1002.34
2019-03-03T05:38:07.138Z,1002.38
2019-03-03T05:39:07.156Z,1002.35
2019-03-03T05:40:07.172Z,1002.38
2019-03-03T05:41:07.188Z,1002.35
2019-03-03T05:42:07.203Z,1002.26
2019-03-03T05:43:07.220Z,1002.25
2019-03-03T05:44:07.237Z,1002.22
2019-03-03T05:46:07.268Z,1002.23
2019-03-03T05:47:07.284Z,1002.26
2019-03-03T05:48:07.300Z,1002.27
2019-03-03T05:49:07.316Z,1002.22
2019-03-03T05:50:07.332Z,1002.17
2019-03-03T05:51:07.349Z,1002.13
2019-03-03T05:52:07.365Z,1002.15
2019-03-03T05:53:07.380Z,1002.18
2019-03-03T05:54:07.397Z,1002.15
2019-03-03T05:55:07.414Z,1002.12
2019-03-03T05:56:07.429Z,1002.07
2019-03-03T05:57:07.447Z,1002.07
2019-03-03T05:58:07.462Z,1002.1
2019-03-03T05:59:07.479Z,1002
2019-03-03T06:00:07.494Z,1002.01
2019-03-03T06:02:07.527Z,1002.06
2019-03-03T06:03:07.543Z,1002.09
2019-03-03T06:04:07.559Z,1002.02
2019-03-03T06:05:07.576Z,1002.11
2019-03-03T06:06:07.592Z,1002.14
2019-03-03T06:07:07.607Z,1002.08
2019-03-03T06:08:07.624Z,1002.07
2019-03-03T06:09:07.641Z,1002.07
2019-03-03T06:10:07.657Z,1002.03
2019-03-03T06:11:07.673Z,1001.99
2019-03-03T06:12:07.689Z,1001.99
2019-03-03T06:13:07.705Z,1001.96
2019-03-03T06:14:07.722Z,1002.01
2019-03-03T06:15:07.739Z,1001.96
2019-03-03T06:17:07.772Z,1002.02
2019-03-03T06:18:07.787Z,1002.02
2019-03-03T06:19:07.803Z,1002.02
2019-03-03T06:20:07.820Z,1002.01
2019-03-03T06:21:07.837Z,1001.94
2019-03-03T06:22:07.852Z,1001.95
2019-03-03T06:23:07.871Z,1001.91
2019-03-03T06:24:07.885Z,1001.97
2019-03-03T06:25:07.911Z,1001.93
2019-03-03T06:26:07.918Z,1001.93
2019-03-03T06:27:07.934Z,1001.91
2019-03-03T06:28:07.951Z,1001.92
2019-03-03T06:29:07.966Z,1001.87
2019-03-03T06:30:07.984Z,1001.87
2019-03-03T06:31:08.000Z,1001.83
2019-03-03T06:32:08.016Z,1001.91
2019-03-03T06:33:08.032Z,1001.84
2019-03-03T06:34:08.048Z,1001.86
2019-03-03T06:35:08.065Z,1001.9
2019-03-03T06:36:08.081Z,1001.92
2019-03-03T06:37:08.098Z,1001.85
2019-03-03T06:38:08.114Z,1001.85
2019-03-03T06:39:08.131Z,1001.82
2019-03-03T06:40:08.150Z,1001.81
2019-03-03T06:41:08.165Z,1001.79
2019-03-03T06:42:08.181Z,1001.73
2019-03-03T06:43:08.196Z,1001.68
2019-03-03T06:44:08.212Z,1001.69
2019-03-03T06:45:08.229Z,1001.59
2019-03-03T06:46:08.246Z,1001.58
2019-03-03T06:47:08.262Z,1001.55
2019-03-03T06:49:08.295Z,1001.52
2019-03-03T06:50:08.312Z,1001.48
2019-03-03T06:51:08.329Z,1001.48
2019-03-03T06:52:08.345Z,1001.5
2019-03-03T06:53:08.363Z,1001.54
2019-03-03T06:54:08.378Z,1001.56
2019-03-03T06:55:08.394Z,1001.57
2019-03-03T06:56:08.411Z,1001.52
2019-03-03T06:57:08.427Z,1001.52
2019-03-03T06:58:08.443Z,1001.52
2019-03-03T06:59:08.460Z,1001.55
2019-03-03T07:00:10.133Z,1001.52
2019-03-03T07:01:08.494Z,1001.52
2019-03-03T07:02:08.512Z,1001.52
2019-03-03T07:03:08.527Z,1001.54
2019-03-03T07:05:08.561Z,1001.54
2019-03-03T07:06:08.577Z,1001.57
2019-03-03T07:07:08.594Z,1001.58
2019-03-03T07:08:08.611Z,1001.58
2019-03-03T07:09:08.626Z,1001.53
2019-03-03T07:10:08.645Z,1001.55
2019-03-03T07:11:10.077Z,1001.52
2019-03-03T07:12:08.677Z,1001.52
2019-03-03T07:13:08.693Z,1001.5
2019-03-03T07:14:08.714Z,1001.48
2019-03-03T07:15:08.728Z,1001.42
2019-03-03T07:16:08.745Z,1001.47
2019-03-03T07:17:08.762Z,1001.48
2019-03-03T07:18:08.779Z,1001.51
2019-03-03T07:19:08.796Z,1001.52
2019-03-03T07:21:08.828Z,1001.4
2019-03-03T07:22:08.847Z,1001.5
2019-03-03T07:23:08.866Z,1001.44
2019-03-03T07:24:08.880Z,1001.48
2019-03-03T07:25:08.895Z,1001.43
2019-03-03T07:26:08.915Z,1001.5
2019-03-03T07:27:08.935Z,1001.42
2019-03-03T07:28:08.945Z,1001.44
2019-03-03T07:29:08.962Z,1001.4
2019-03-03T07:30:08.980Z,1001.41
2019-03-03T07:31:08.996Z,1001.34
2019-03-03T07:32:09.014Z,1001.37
2019-03-03T07:33:09.030Z,1001.38
2019-03-03T07:34:09.048Z,1001.36
2019-03-03T07:35:09.064Z,1001.37
2019-03-03T07:37:09.098Z,1001.36
2019-03-03T07:38:09.116Z,1001.39
2019-03-03T07:39:09.132Z,1001.39
2019-03-03T07:40:09.150Z,1001.43
2019-03-03T07:41:09.167Z,1001.37
2019-03-03T07:42:09.185Z,1001.36
2019-03-03T07:43:09.201Z,1001.39
2019-03-03T07:44:09.218Z,1001.35
2019-03-03T07:45:09.237Z,1001.37
2019-03-03T07:46:09.254Z,1001.33
2019-03-03T07:47:09.269Z,1001.26
2019-03-03T07:48:09.287Z,1001.24
2019-03-03T07:49:09.305Z,1001.16
2019-03-03T07:50:09.322Z,1001.23
2019-03-03T07:52:09.357Z,1001.24
2019-03-03T07:53:09.374Z,1001.31
2019-03-03T07:54:09.391Z,1001.2
2019-03-03T07:55:09.409Z,1001.29
2019-03-03T07:56:09.427Z,1001.29
2019-03-03T07:57:09.444Z,1001.25
2019-03-03T07:58:09.462Z,1001.2
2019-03-03T07:59:09.479Z,1001.18
2019-03-03T08:00:09.496Z,1001.22
2019-03-03T08:01:09.514Z,1001.24
2019-03-03T08:02:09.531Z,1001.26
2019-03-03T08:03:09.549Z,1001.27
2019-03-03T08:04:09.566Z,1001.24
2019-03-03T08:05:09.583Z,1001.23
2019-03-03T08:06:09.602Z,1001.3
2019-03-03T08:07:09.620Z,1001.23
2019-03-03T08:08:09.640Z,1001.26
2019-03-03T08:09:09.655Z,1001.27
2019-03-03T08:10:09.675Z,1001.32
2019-03-03T08:11:09.689Z,1001.23
2019-03-03T08:12:09.707Z,1001.22
2019-03-03T08:13:09.833Z,1001.23
2019-03-03T08:14:09.743Z,1001.12
2019-03-03T08:15:09.759Z,1001.1
2019-03-03T08:16:10.886Z,1001.19
2019-03-03T08:17:09.795Z,1001.15
2019-03-03T08:18:09.814Z,1001.19
2019-03-03T08:19:09.830Z,1001.17
2019-03-03T08:20:09.853Z,1001.14
2019-03-03T08:21:09.869Z,1001.15
2019-03-03T08:22:09.884Z,1001.16
2019-03-03T08:24:09.920Z,1000.99
2019-03-03T08:25:09.938Z,1001.07
2019-03-03T08:26:09.955Z,1001.06
2019-03-03T08:27:09.973Z,1001.06
2019-03-03T08:28:09.992Z,1000.93
2019-03-03T08:29:10.013Z,1000.96
2019-03-03T08:30:10.027Z,1001
2019-03-03T08:31:10.045Z,1001.02
2019-03-03T08:32:10.064Z,1001.11
2019-03-03T08:33:10.082Z,1001.08
2019-03-03T08:34:10.099Z,1001.07
2019-03-03T08:35:10.117Z,1000.97
2019-03-03T08:36:10.136Z,1000.91
2019-03-03T08:37:10.153Z,1001
2019-03-03T08:38:10.171Z,1000.88
2019-03-03T08:40:10.208Z,1001.01
2019-03-03T08:41:10.225Z,1000.95
2019-03-03T08:42:10.244Z,1000.96
2019-03-03T08:43:10.262Z,1000.93
2019-03-03T08:44:10.280Z,1000.98
2019-03-03T08:45:10.298Z,1000.86
2019-03-03T08:46:10.316Z,1000.87
2019-03-03T08:47:10.335Z,1000.85
2019-03-03T08:48:10.352Z,1000.98
2019-03-03T08:49:10.417Z,1001.01
2019-03-03T08:50:10.390Z,1001.06
2019-03-03T08:51:10.408Z,1001
2019-03-03T08:52:10.426Z,1001.01
2019-03-03T08:53:10.445Z,1001.01
2019-03-03T08:54:10.463Z,1001
2019-03-03T08:56:10.499Z,1001.04
2019-03-03T08:57:10.518Z,1000.95
2019-03-03T08:58:10.536Z,1001.08
2019-03-03T08:59:10.555Z,1001.04
2019-03-03T09:00:10.573Z,1001.04
2019-03-03T09:01:10.591Z,1000.92
2019-03-03T09:02:10.610Z,1001.04
2019-03-03T09:03:10.628Z,1001.05
2019-03-03T09:04:10.646Z,1001.01
2019-03-03T09:05:10.665Z,1000.96
2019-03-03T09:06:10.683Z,1001.07
2019-03-03T09:07:10.702Z,1001.01
2019-03-03T09:08:10.720Z,1001.1
2019-03-03T09:09:10.741Z,1001.12
2019-03-03T09:10:10.757Z,1001.12
2019-03-03T09:12:10.795Z,1001.05
2019-03-03T09:13:10.852Z,1001.05
2019-03-03T09:14:10.830Z,1001.07
2019-03-03T09:15:10.849Z,1001.03
2019-03-03T09:16:10.868Z,1001.09
2019-03-03T09:17:10.888Z,1001.06
2019-03-03T09:18:10.905Z,1001.12
2019-03-03T09:19:10.924Z,1000.96
2019-03-03T09:20:10.950Z,1001.15
2019-03-03T09:21:10.961Z,1001.14
2019-03-03T09:22:10.979Z,1001.15
2019-03-03T09:23:10.998Z,1001.15
2019-03-03T09:24:11.018Z,1001.06
2019-03-03T09:25:11.035Z,1001.03
2019-03-03T09:27:11.073Z,1001.07
2019-03-03T09:28:11.091Z,1001.1
2019-03-03T09:29:11.109Z,1001.09
2019-03-03T09:30:11.128Z,1001.09
2019-03-03T09:31:11.149Z,1001.1
2019-03-03T09:32:11.165Z,1001.04
2019-03-03T09:33:11.183Z,1001.06
2019-03-03T09:34:11.202Z,1001.06
2019-03-03T09:35:11.224Z,1001.06
2019-03-03T09:36:11.239Z,1001.02
2019-03-03T09:37:11.258Z,1001.09
2019-03-03T09:38:11.276Z,1001.03
2019-03-03T09:39:11.294Z,1001.03
2019-03-03T09:40:11.312Z,1000.96
2019-03-03T09:41:11.331Z,1001.04
2019-03-03T09:42:11.350Z,1000.9
2019-03-03T09:43:11.369Z,1001.04
2019-03-03T09:44:11.387Z,1001.04
2019-03-03T09:45:11.406Z,1001.12
2019-03-03T09:46:11.426Z,1001.05
2019-03-03T09:47:11.443Z,1000.96
2019-03-03T09:48:11.462Z,1001.02
2019-03-03T09:49:11.481Z,1000.99
2019-03-03T09:50:11.498Z,1001.09
2019-03-03T09:51:11.516Z,1001
2019-03-03T09:52:11.535Z,1000.96
2019-03-03T09:53:11.554Z,1000.96
2019-03-03T09:54:11.572Z,1001.02
2019-03-03T09:55:11.591Z,1001.04
2019-03-03T09:56:11.610Z,1001.02
2019-03-03T09:57:11.627Z,1001.03
2019-03-03T09:59:11.670Z,1001.05
2019-03-03T10:00:11.685Z,1000.99
2019-03-03T10:01:11.706Z,1001.01
2019-03-03T10:02:11.722Z,1001.07
2019-03-03T10:03:11.741Z,1001.15
2019-03-03T10:04:11.760Z,1001.13
2019-03-03T10:05:11.778Z,1001.07
2019-03-03T10:06:11.797Z,1001.18
2019-03-03T10:07:13.603Z,1001.19
2019-03-03T10:08:11.834Z,1001.17
2019-03-03T10:09:11.853Z,1001.18
2019-03-03T10:10:11.872Z,1001.09
2019-03-03T10:11:11.892Z,1001.04
2019-03-03T10:12:11.910Z,1001.09
2019-03-03T10:13:11.929Z,1001.09
2019-03-03T10:15:11.967Z,1001.11
2019-03-03T10:16:11.985Z,1001.08
2019-03-03T10:17:12.104Z,1001.08
2019-03-03T10:18:12.023Z,1001.03
2019-03-03T10:19:12.042Z,1001.04
2019-03-03T10:20:12.060Z,1001.07
2019-03-03T10:21:12.081Z,1001.11
2019-03-03T10:22:12.099Z,1001.06
2019-03-03T10:23:12.117Z,1001.07
2019-03-03T10:24:12.139Z,1001.12
2019-03-03T10:25:12.156Z,1001.07
2019-03-03T10:26:12.175Z,1001.14
2019-03-03T10:27:12.194Z,1001.21
2019-03-03T10:28:12.215Z,1001.19
2019-03-03T10:29:12.232Z,1001.17
2019-03-03T10:31:12.273Z,1001.23
2019-03-03T10:32:12.289Z,1001.2
2019-03-03T10:33:12.309Z,1001.22
2019-03-03T10:34:12.326Z,1001.19
2019-03-03T10:35:12.346Z,1001.15
2019-03-03T10:36:12.365Z,1001.19
2019-03-03T10:37:14.417Z,1001.13
2019-03-03T10:38:12.403Z,1001.18
2019-03-03T10:39:12.422Z,1001.18
2019-03-03T10:40:12.448Z,1001.19
2019-03-03T10:41:12.459Z,1001.14
2019-03-03T10:42:12.479Z,1001.16
2019-03-03T10:43:12.498Z,1001.18
2019-03-03T10:44:12.519Z,1001.05
2019-03-03T10:45:12.536Z,1001.15
2019-03-03T10:47:12.575Z,1001.11
2019-03-03T10:48:12.596Z,1001.09
2019-03-03T10:49:12.614Z,1001.05
2019-03-03T10:50:12.635Z,1001.12
2019-03-03T10:51:12.652Z,1001.12
2019-03-03T10:52:12.672Z,1001.01
2019-03-03T10:53:12.690Z,1001.07
2019-03-03T10:54:12.709Z,1001.14
2019-03-03T10:55:12.728Z,1001.08
2019-03-03T10:56:12.752Z,1001.11
2019-03-03T10:57:12.766Z,1001.3
2019-03-03T10:58:12.786Z,1001.18
2019-03-03T10:59:12.807Z,1001.23
2019-03-03T11:00:12.825Z,1001.15
2019-03-03T11:02:12.864Z,1001.15
2019-03-03T11:03:12.883Z,1001.18
2019-03-03T11:04:12.903Z,1001.13
2019-03-03T11:05:12.921Z,1001.12
2019-03-03T11:06:12.941Z,1001.08
2019-03-03T11:07:12.959Z,1001.11
2019-03-03T11:08:12.978Z,1001.11
2019-03-03T11:09:12.999Z,1001.05
2019-03-03T11:10:13.017Z,1001.13
2019-03-03T11:11:13.035Z,1001.05
2019-03-03T11:12:13.055Z,1001.06
2019-03-03T11:13:13.076Z,1001.04
2019-03-03T11:14:13.094Z,1001.05
2019-03-03T11:15:18.359Z,1001.07
2019-03-03T11:16:13.132Z,1001.04
2019-03-03T11:17:13.153Z,1001.08
2019-03-03T11:18:14.052Z,1001.1
2019-03-03T11:19:13.191Z,1001.05
2019-03-03T11:20:13.211Z,1001.09
2019-03-03T11:21:13.230Z,1001.01
2019-03-03T11:22:13.249Z,1001.03
2019-03-03T11:23:13.270Z,1001.06
2019-03-03T11:24:13.289Z,1001.02
2019-03-03T11:25:13.307Z,1000.96
2019-03-03T11:26:13.327Z,1001.06
2019-03-03T11:27:13.347Z,1000.94
2019-03-03T11:28:23.331Z,1000.95
2019-03-03T11:29:13.386Z,1000.89
2019-03-03T11:30:13.405Z,1000.9
2019-03-03T11:31:13.425Z,1000.94
2019-03-03T11:32:13.445Z,1000.96
2019-03-03T11:34:13.487Z,1000.96
2019-03-03T11:35:13.504Z,1000.94
2019-03-03T11:36:13.522Z,1000.97
2019-03-03T11:37:14.158Z,1000.91
2019-03-03T11:38:13.565Z,1000.94
2019-03-03T11:39:13.598Z,1000.96
2019-03-03T11:40:13.600Z,1000.93
2019-03-03T11:41:13.620Z,1000.92
2019-03-03T11:42:13.642Z,1000.94
2019-03-03T11:43:13.709Z,1000.92
2019-03-03T11:44:13.682Z,1000.93
2019-03-03T11:45:13.698Z,1000.92
2019-03-03T11:46:13.719Z,1000.89
2019-03-03T11:47:13.737Z,1000.88
2019-03-03T11:48:13.757Z,1000.94
2019-03-03T11:50:13.797Z,1000.86
2019-03-03T11:51:13.816Z,1000.98
2019-03-03T11:52:13.835Z,1000.88
2019-03-03T11:53:13.855Z,1000.81
2019-03-03T11:54:13.875Z,1000.81
2019-03-03T11:55:13.896Z,1000.8
2019-03-03T11:56:13.913Z,1000.83
2019-03-03T11:57:13.935Z,1000.83
2019-03-03T11:58:13.953Z,1000.75
2019-03-03T11:59:13.972Z,1000.82
2019-03-03T12:00:13.992Z,1000.79
2019-03-03T12:01:14.011Z,1000.81
2019-03-03T12:02:14.029Z,1000.85
2019-03-03T12:03:14.050Z,1000.8
2019-03-03T12:04:14.069Z,1000.89
2019-03-03T12:06:14.161Z,1000.83
2019-03-03T12:07:14.130Z,1000.8
2019-03-03T12:08:14.147Z,1000.81
2019-03-03T12:09:14.166Z,1000.87
2019-03-03T12:10:14.185Z,1000.77
2019-03-03T12:11:14.948Z,1000.87
2019-03-03T12:12:14.226Z,1000.83
2019-03-03T12:13:14.631Z,1000.85
2019-03-03T12:14:14.263Z,1000.85
2019-03-03T12:15:14.284Z,1000.8
2019-03-03T12:16:14.301Z,1000.84
2019-03-03T12:17:14.321Z,1000.89
2019-03-03T12:18:14.341Z,1000.91
2019-03-03T12:19:14.360Z,1000.84
2019-03-03T12:20:14.379Z,1000.83
2019-03-03T12:22:14.418Z,1000.89
2019-03-03T12:23:14.437Z,1000.82
2019-03-03T12:24:14.457Z,1000.94
2019-03-03T12:25:14.576Z,1000.79
2019-03-03T12:26:14.495Z,1000.87
2019-03-03T12:27:14.513Z,1000.84
2019-03-03T12:28:14.535Z,1000.84
2019-03-03T12:29:14.552Z,1000.79
2019-03-03T12:30:14.571Z,1000.73
2019-03-03T12:31:14.590Z,1000.72
2019-03-03T12:32:14.609Z,1000.76
2019-03-03T12:33:14.629Z,1000.74
2019-03-03T12:34:14.648Z,1000.71
2019-03-03T12:35:14.668Z,1000.65
2019-03-03T12:37:14.708Z,1000.57
2019-03-03T12:38:14.725Z,1000.57
2019-03-03T12:39:14.746Z,1000.62
2019-03-03T12:40:14.764Z,1000.68
2019-03-03T12:41:14.783Z,1000.68
2019-03-03T12:42:14.802Z,1000.59
2019-03-03T12:43:14.822Z,1000.72
2019-03-03T12:44:14.841Z,1000.66
2019-03-03T12:45:14.859Z,1000.65
2019-03-03T12:46:14.879Z,1000.63
2019-03-03T12:47:14.900Z,1000.52
2019-03-03T12:48:14.919Z,1000.53